createdAt,value
2019-04-25T00:01:12.909Z,9.42
2019-04-25T00:05:21.180Z,9.30
2019-04-25T00:09:31.820Z,9.14
2019-04-25T00:13:39.746Z,9.16
2019-04-25T02:04:23.856Z,8.89
2019-04-25T02:08:31.500Z,8.80
2019-04-25T02:12:44.530Z,8.76
2019-04-25T02:16:53.086Z,8.63
2019-04-25T02:21:04.136Z,8.57
2019-04-25T02:25:13.189Z,8.56
2019-04-25T02:29:21.232Z,8.66
2019-04-25T02:33:28.942Z,8.99
2019-04-25T02:37:37.162Z,8.98
2019-04-25T02:41:44.881Z,8.98
2019-04-25T02:46:11.074Z,9.00
2019-04-25T02:50:36.554Z,8.91
2019-04-25T02:54:44.955Z,8.88
2019-04-25T02:58:54.323Z,8.62
2019-04-25T03:03:03.427Z,8.54
2019-04-25T03:07:16.873Z,8.40
2019-04-25T03:11:21.413Z,8.64
2019-04-25T03:15:29.333Z,8.66
2019-04-25T03:19:59.900Z,8.77
2019-04-25T03:24:12.447Z,8.79
2019-04-25T03:28:18.249Z,8.66
2019-04-25T03:32:28.370Z,8.92
2019-04-25T03:36:35.424Z,8.80
2019-04-25T03:40:43.969Z,8.84
2019-04-25T03:44:51.755Z,8.96
2019-04-25T03:48:59.895Z,9.07
2019-04-25T03:53:07.963Z,9.13
2019-04-25T03:57:17.314Z,9.28
2019-04-25T04:01:26.350Z,9.64
2019-04-25T04:05:34.579Z,9.86
2019-04-25T04:09:43.510Z,9.94
2019-04-25T04:13:51.529Z,10.02
2019-04-25T04:18:10.691Z,9.99
2019-04-25T04:22:26.369Z,10.18
2019-04-25T04:26:34.614Z,10.39
2019-04-25T04:30:43.567Z,10.54
2019-04-25T04:34:53.613Z,10.80
2019-04-25T04:39:01.157Z,10.61
2019-04-25T04:43:11.677Z,10.61
2019-04-25T04:47:19.940Z,10.71
2019-04-25T04:51:27.667Z,10.90
2019-04-25T04:55:36.724Z,11.11
2019-04-25T04:59:44.375Z,11.18
2019-04-25T05:04:05.340Z,11.16
2019-04-25T05:08:25.057Z,11.31
2019-04-25T05:12:33.944Z,11.48
2019-04-25T05:16:43.242Z,11.78
2019-04-25T05:20:51.181Z,11.70
2019-04-25T05:24:58.971Z,11.58
2019-04-25T05:29:06.802Z,11.95
2019-04-25T05:33:18.424Z,12.67
2019-04-25T05:37:26.486Z,13.26
2019-04-25T05:41:40.179Z,13.48
2019-04-25T05:45:48.099Z,13.91
2019-04-25T05:49:56.086Z,13.35
2019-04-25T05:54:05.605Z,13.90
2019-04-25T05:58:13.836Z,14.43
2019-04-25T06:02:21.794Z,14.27
2019-04-25T06:06:30.013Z,14.44
2019-04-25T06:10:56.489Z,14.95
2019-04-25T06:15:04.759Z,14.74
2019-04-25T06:19:37.166Z,15.16
2019-04-25T06:24:07.068Z,15.14
2019-04-25T06:28:18.138Z,15.23
2019-04-25T06:32:25.827Z,16.02
2019-04-25T06:36:35.249Z,16.20
2019-04-25T06:40:43.834Z,16.47
2019-04-25T06:44:59.666Z,16.13
2019-04-25T06:49:25.486Z,16.42
2019-04-25T06:53:34.636Z,15.91
2019-04-25T06:57:44.167Z,16.33
2019-04-25T07:01:52.005Z,17.15
2019-04-25T07:05:59.895Z,16.94
2019-04-25T07:10:08.234Z,17.06
2019-04-25T07:14:17.225Z,17.12
2019-04-25T07:18:30.219Z,16.71
2019-04-25T07:22:35.409Z,16.74
2019-04-25T07:27:03.756Z,17.23
2019-04-25T07:31:25.279Z,17.26
2019-04-25T07:35:33.756Z,17.31
2019-04-25T07:39:44.150Z,17.82
2019-04-25T07:43:53.331Z,17.66
2019-04-25T07:48:01.705Z,17.66
2019-04-25T07:52:11.539Z,17.91
2019-04-25T07:56:19.079Z,17.68
2019-04-25T08:00:27.918Z,17.87
2019-04-25T08:04:36.994Z,17.61
2019-04-25T08:08:45.278Z,17.61
2019-04-25T08:12:53.639Z,18.10
2019-04-25T08:17:03.730Z,18.77
2019-04-25T08:21:11.788Z,18.77
2019-04-25T08:25:19.891Z,19.09
2019-04-25T08:29:27.833Z,19.22
2019-04-25T08:33:35.813Z,19.14
2019-04-25T08:37:44.076Z,19.08
2019-04-25T08:41:53.747Z,18.99
2019-04-25T08:46:01.408Z,19.28
2019-04-25T08:50:28.769Z,19.41
2019-04-25T08:54:50.904Z,19.95
2019-04-25T08:59:17.833Z,19.17
2019-04-25T09:03:30.518Z,19.39
2019-04-25T09:07:39.119Z,18.84
2019-04-25T09:11:48.346Z,19.21
2019-04-25T09:15:56.174Z,19.34
2019-04-25T09:20:04.607Z,19.22
2019-04-25T09:24:13.400Z,20.12
2019-04-25T09:28:21.252Z,19.55
2019-04-25T09:32:29.355Z,19.38
2019-04-25T09:36:37.682Z,19.15
2019-04-25T09:40:46.652Z,19.48
2019-04-25T09:45:20.100Z,19.62
2019-04-25T09:49:33.854Z,20.04
2019-04-25T09:53:49.601Z,19.72
2019-04-25T09:58:01.056Z,19.56
2019-04-25T10:02:09.857Z,20.15
2019-04-25T10:06:19.947Z,19.30
2019-04-25T10:10:28.286Z,19.38
2019-04-25T10:15:08.356Z,18.80
2019-04-25T10:19:16.470Z,19.44
2019-04-25T10:23:24.585Z,19.47
2019-04-25T10:27:32.414Z,19.11
2019-04-25T10:31:40.726Z,19.30
2019-04-25T10:35:53.873Z,19.53
2019-04-25T10:39:58.396Z,19.51
2019-04-25T10:44:06.505Z,19.36
2019-04-25T10:48:14.314Z,19.00
2019-04-25T10:52:23.317Z,19.85
2019-04-25T10:56:31.059Z,19.49
2019-04-25T11:00:42.205Z,19.60
2019-04-25T11:04:55.610Z,18.98
2019-04-25T11:09:03.551Z,19.98
2019-04-25T11:13:14.365Z,20.17
2019-04-25T11:17:24.094Z,19.62
2019-04-25T11:21:33.290Z,19.58
2019-04-25T11:25:42.948Z,19.72
2019-04-25T11:29:51.473Z,19.65
2019-04-25T11:33:59.785Z,18.62
2019-04-25T11:38:09.659Z,19.34
2019-04-25T11:42:17.547Z,19.56
2019-04-25T11:46:25.676Z,19.63
2019-04-25T11:50:36.907Z,19.75
2019-04-25T11:54:45.739Z,18.76
2019-04-25T11:58:54.211Z,19.48
2019-04-25T12:03:04.037Z,19.91
2019-04-25T12:07:11.782Z,19.13
2019-04-25T12:11:19.741Z,19.12
2019-04-25T12:15:27.866Z,18.60
2019-04-25T12:19:38.080Z,18.69
2019-04-25T12:23:47.858Z,19.27
2019-04-25T12:27:56.358Z,19.00
2019-04-25T12:32:04.371Z,18.37
2019-04-25T12:36:13.615Z,19.19
2019-04-25T12:40:21.406Z,19.07
2019-04-25T12:44:53.940Z,19.32
2019-04-25T12:49:01.845Z,18.84
2019-04-25T12:53:09.542Z,18.59
2019-04-25T12:57:18.235Z,19.33
2019-04-25T13:01:26.043Z,18.42
2019-04-25T13:05:34.743Z,18.77
2019-04-25T13:09:42.729Z,18.75
2019-04-25T13:13:51.153Z,18.49
2019-04-25T13:17:59.023Z,18.16
2019-04-25T13:22:08.141Z,18.24
2019-04-25T13:26:18.261Z,17.37
2019-04-25T13:31:05.374Z,17.93
2019-04-25T13:35:10.838Z,17.76
2019-04-25T13:39:20.015Z,17.76
2019-04-25T13:43:27.927Z,17.46
2019-04-25T13:47:35.702Z,16.74
2019-04-25T13:51:43.621Z,16.74
2019-04-25T13:55:51.861Z,17.78
2019-04-25T13:59:59.668Z,16.81
2019-04-25T14:04:09.539Z,17.25
2019-04-25T14:08:18.489Z,16.89
2019-04-25T14:12:28.907Z,16.55
2019-04-25T14:16:48.105Z,16.71
2019-04-25T14:21:00.830Z,16.46
2019-04-25T14:25:08.814Z,16.12
2019-04-25T14:29:16.869Z,15.99
2019-04-25T14:33:26.228Z,16.25
2019-04-25T14:37:39.453Z,16.55
2019-04-25T14:41:44.087Z,15.65
2019-04-25T14:45:52.392Z,16.11
2019-04-25T14:50:00.460Z,15.37
2019-04-25T14:54:13.780Z,15.12
2019-04-25T14:58:23.016Z,14.88
2019-04-25T15:02:34.232Z,14.78
2019-04-25T15:06:42.560Z,14.64
2019-04-25T15:10:50.659Z,14.75
2019-04-25T15:14:59.351Z,14.87
2019-04-25T15:19:07.804Z,14.46
2019-04-25T15:23:15.567Z,14.22
2019-04-25T15:27:24.114Z,14.23
2019-04-25T15:31:32.903Z,14.07
2019-04-25T15:35:46.418Z,14.31
2019-04-25T15:39:59.883Z,13.84
2019-04-25T15:44:26.670Z,13.69
2019-04-25T15:48:34.936Z,13.63
2019-04-25T15:52:44.889Z,13.71
2019-04-25T15:56:52.631Z,13.79
2019-04-25T16:01:00.714Z,13.41
2019-04-25T16:05:09.656Z,13.61
2019-04-25T16:09:18.431Z,13.56
2019-04-25T16:13:26.972Z,13.68
2019-04-25T16:17:35.617Z,13.59
2019-04-25T16:21:43.882Z,13.07
2019-04-25T16:25:51.915Z,12.68
2019-04-25T16:30:00.074Z,12.80
2019-04-25T16:34:08.249Z,12.71
2019-04-25T16:38:16.411Z,12.36
2019-04-25T16:42:25.033Z,12.64
2019-04-25T16:46:34.197Z,12.54
2019-04-25T16:50:42.352Z,12.48
2019-04-25T16:54:52.579Z,12.48
2019-04-25T16:59:01.348Z,12.38
2019-04-25T17:03:10.128Z,12.30
2019-04-25T17:07:18.065Z,12.05
2019-04-25T17:11:26.916Z,11.93
2019-04-25T17:16:04.279Z,11.90
2019-04-25T17:20:34.674Z,11.69
2019-04-25T17:24:42.766Z,11.35
2019-04-25T17:28:52.199Z,11.40
2019-04-25T17:33:25.575Z,11.63
2019-04-25T17:37:40.754Z,11.57
2019-04-25T17:41:50.767Z,11.60
2019-04-25T17:45:59.046Z,11.67
2019-04-25T17:50:07.514Z,11.88
2019-04-25T17:54:15.301Z,11.77
2019-04-25T17:58:23.441Z,11.76
2019-04-25T18:02:31.341Z,11.56
2019-04-25T18:06:40.002Z,11.28
2019-04-25T18:10:47.981Z,11.36
2019-04-25T18:14:57.257Z,11.27
2019-04-25T18:19:18.742Z,11.50
2019-04-25T18:23:43.999Z,11.52
2019-04-25T18:28:16.819Z,11.58
2019-04-25T18:32:26.843Z,11.15
2019-04-25T18:36:52.430Z,11.27
2019-04-25T18:41:14.371Z,11.34
2019-04-25T18:45:26.416Z,11.49
2019-04-25T18:49:33.946Z,11.16
2019-04-25T18:54:16.414Z,11.24
2019-04-25T18:58:42.038Z,11.10
2019-04-25T19:03:26.881Z,11.02
2019-04-25T19:07:35.728Z,11.05
2019-04-25T19:11:43.775Z,11.04
2019-04-25T19:15:51.611Z,11.18
2019-04-25T19:19:59.215Z,11.06
2019-04-25T19:24:07.137Z,10.75
2019-04-25T19:28:15.213Z,10.66
2019-04-25T19:32:25.038Z,10.67
2019-04-25T19:36:32.796Z,10.88
2019-04-25T19:40:55.269Z,11.04
2019-04-25T19:45:03.635Z,10.83
2019-04-25T19:49:11.369Z,10.66
2019-04-25T19:53:19.601Z,10.83
2019-04-25T19:57:27.477Z,10.93
2019-04-25T20:01:35.321Z,10.63
2019-04-25T20:06:07.589Z,10.14
2019-04-25T20:10:28.561Z,10.21
2019-04-25T20:14:36.526Z,10.18
2019-04-25T20:18:45.639Z,10.44
2019-04-25T20:22:54.543Z,10.64
2019-04-25T20:27:03.456Z,10.83
2019-04-25T20:31:11.368Z,10.77
2019-04-25T20:35:19.268Z,10.64
2019-04-25T20:39:27.843Z,10.44
2019-04-25T20:43:36.628Z,10.33
2019-04-25T20:47:44.336Z,10.78
2019-04-25T20:51:52.636Z,10.92
2019-04-25T20:56:00.977Z,11.11
2019-04-25T21:00:09.976Z,11.11
2019-04-25T21:04:35.838Z,11.14
2019-04-25T21:08:43.765Z,11.15
2019-04-25T21:12:51.829Z,10.99
2019-04-25T21:17:03.934Z,11.11
2019-04-25T21:21:11.710Z,11.26
2019-04-25T21:25:19.518Z,11.37
2019-04-25T21:29:27.319Z,11.16
2019-04-25T21:33:35.248Z,11.24
2019-04-25T21:37:44.162Z,11.35
2019-04-25T21:42:02.086Z,11.16
2019-04-25T21:46:10.130Z,11.23
2019-04-25T21:50:18.335Z,10.81
2019-04-25T21:54:26.583Z,10.86
2019-04-25T21:58:34.785Z,10.90
2019-04-25T22:02:43.742Z,11.05
2019-04-25T22:06:52.852Z,10.98
2019-04-25T22:11:01.507Z,10.60
2019-04-25T22:15:12.205Z,10.37
2019-04-25T22:19:20.070Z,10.59
2019-04-25T22:23:28.102Z,10.75
2019-04-25T22:27:37.209Z,10.56
2019-04-25T22:31:52.508Z,9.92
2019-04-25T22:36:13.513Z,9.81
2019-04-25T22:40:21.520Z,10.17
2019-04-25T22:44:29.628Z,9.95
2019-04-25T22:48:50.292Z,9.49
2019-04-25T22:52:58.092Z,9.56
2019-04-25T22:57:06.374Z,9.79
2019-04-25T23:01:36.532Z,9.76
2019-04-25T23:05:48.836Z,9.52
2019-04-25T23:09:56.672Z,9.49
2019-04-25T23:14:05.300Z,9.35
2019-04-25T23:18:14.028Z,9.25
2019-04-25T23:22:21.748Z,9.18
2019-04-25T23:26:52.183Z,9.20
2019-04-25T23:31:10.188Z,9.07
2019-04-25T23:35:25.396Z,9.31
2019-04-25T23:39:27.995Z,9.48
2019-04-25T23:43:35.898Z,9.36
2019-04-25T23:47:44.542Z,9.30
2019-04-25T23:51:52.865Z,9.16
2019-04-25T23:56:00.771Z,9.31
